createdAt,value
2023-05-02T00:01:11.605Z,7.23
2023-05-02T00:03:58.035Z,9.13
2023-05-02T00:06:46.470Z,7.87
2023-05-02T00:09:33.133Z,7.63
2023-05-02T00:12:20.114Z,7.90
2023-05-02T00:15:07.507Z,8.03
2023-05-02T00:17:57.010Z,8.87
2023-05-02T00:20:43.761Z,7.90
2023-05-02T00:23:30.421Z,8.27
2023-05-02T00:26:17.008Z,8.27
2023-05-02T00:29:03.676Z,8.83
2023-05-02T00:31:50.055Z,12.57
2023-05-02T00:34:36.737Z,7.63
2023-05-02T00:37:27.472Z,9.77
2023-05-02T00:40:16.958Z,9.50
2023-05-02T00:43:03.337Z,8.67
2023-05-02T00:45:52.557Z,10.57
2023-05-02T00:48:40.051Z,8.83
2023-05-02T00:51:27.335Z,10.70
2023-05-02T00:54:14.577Z,11.27
2023-05-02T00:57:02.423Z,10.30
2023-05-02T00:59:52.847Z,10.33
2023-05-02T01:02:51.314Z,10.17
2023-05-02T01:06:03.931Z,9.77
2023-05-02T01:09:13.175Z,10.00
2023-05-02T01:12:31.268Z,9.23
2023-05-02T01:15:22.319Z,10.37
2023-05-02T01:18:14.713Z,9.80
2023-05-02T01:21:06.653Z,11.77
2023-05-02T01:24:05.499Z,9.90
2023-05-02T01:27:07.584Z,10.23
2023-05-02T01:32:59.192Z,10.37
2023-05-02T01:35:49.636Z,11.07
2023-05-02T01:38:37.541Z,10.07
2023-05-02T01:41:29.029Z,12.00
2023-05-02T01:44:24.186Z,9.30
2023-05-02T01:47:12.200Z,11.33
2023-05-02T01:50:03.024Z,11.20
2023-05-02T01:52:55.328Z,14.20
2023-05-02T01:55:44.619Z,13.23
2023-05-02T01:58:35.984Z,11.93
2023-05-02T02:01:27.411Z,13.90
2023-05-02T02:04:16.731Z,13.90
2023-05-02T02:07:10.927Z,12.60
2023-05-02T02:09:57.641Z,11.23
2023-05-02T02:13:04.675Z,12.30
2023-05-02T02:15:55.483Z,12.70
2023-05-02T02:18:45.766Z,16.33
2023-05-02T02:21:34.362Z,11.97
2023-05-02T02:24:22.880Z,13.03
2023-05-02T02:27:09.312Z,15.97
2023-05-02T02:29:55.560Z,13.83
2023-05-02T02:32:42.101Z,13.30
2023-05-02T02:35:34.085Z,12.63
2023-05-02T02:38:50.733Z,15.40
2023-05-02T02:41:43.419Z,13.50
2023-05-02T02:44:54.218Z,15.07
2023-05-02T02:48:19.225Z,13.27
2023-05-02T02:51:19.727Z,16.13
2023-05-02T02:54:27.022Z,11.43
2023-05-02T02:57:26.738Z,13.73
2023-05-02T03:00:22.224Z,14.73
2023-05-02T03:03:10.786Z,13.03
2023-05-02T03:05:57.528Z,13.93
2023-05-02T03:08:44.904Z,14.50
2023-05-02T03:11:36.798Z,13.93
2023-05-02T03:14:23.606Z,12.63
2023-05-02T03:17:10.661Z,14.70
2023-05-02T03:19:57.641Z,16.13
2023-05-02T03:22:44.366Z,15.63
2023-05-02T03:25:32.148Z,22.00
2023-05-02T03:28:18.759Z,17.03
2023-05-02T03:31:07.934Z,20.10
2023-05-02T03:33:58.549Z,15.33
2023-05-02T03:36:45.454Z,15.07
2023-05-02T03:39:31.844Z,15.30
2023-05-02T03:42:18.182Z,15.80
2023-05-02T03:45:05.266Z,15.63
2023-05-02T03:47:51.804Z,16.73
2023-05-02T03:50:38.140Z,14.37
2023-05-02T03:53:25.372Z,10.43
2023-05-02T03:56:20.255Z,10.80
2023-05-02T03:59:14.963Z,12.17
2023-05-02T04:02:01.525Z,11.67
2023-05-02T04:04:57.211Z,14.80
2023-05-02T04:07:43.869Z,12.97
2023-05-02T04:10:30.744Z,12.43
2023-05-02T04:13:20.334Z,10.60
2023-05-02T04:16:09.413Z,12.87
2023-05-02T04:18:57.327Z,8.67
2023-05-02T04:21:45.575Z,7.77
2023-05-02T04:24:33.367Z,9.90
2023-05-02T04:27:19.910Z,8.63
2023-05-02T04:30:07.358Z,8.37
2023-05-02T04:32:54.084Z,9.20
2023-05-02T04:35:41.258Z,8.63
2023-05-02T04:38:30.259Z,8.23
2023-05-02T04:41:17.480Z,11.03
2023-05-02T04:44:10.632Z,9.40
2023-05-02T04:46:58.351Z,10.30
2023-05-02T04:49:44.531Z,10.63
2023-05-02T04:52:31.337Z,8.23
2023-05-02T04:55:17.814Z,9.07
2023-05-02T04:58:05.009Z,8.27
2023-05-02T05:00:52.683Z,8.23
2023-05-02T05:03:39.025Z,8.00
2023-05-02T05:06:27.149Z,11.67
2023-05-02T05:09:15.102Z,9.57
2023-05-02T05:12:01.980Z,10.00
2023-05-02T05:14:50.663Z,11.37
2023-05-02T05:17:38.171Z,7.27
2023-05-02T05:20:24.923Z,8.57
2023-05-02T05:23:15.192Z,6.93
2023-05-02T05:26:17.494Z,8.83
2023-05-02T05:29:08.296Z,9.00
2023-05-02T05:31:59.861Z,8.77
2023-05-02T05:34:47.105Z,7.93
2023-05-02T05:37:33.730Z,10.00
2023-05-02T05:40:21.517Z,5.87
2023-05-02T05:43:13.475Z,6.97
2023-05-02T05:46:00.371Z,7.37
2023-05-02T05:48:48.001Z,6.77
2023-05-02T05:51:35.551Z,8.07
2023-05-02T05:54:22.244Z,8.77
2023-05-02T05:57:08.496Z,7.07
2023-05-02T05:59:57.329Z,8.37
2023-05-02T06:02:43.864Z,8.40
2023-05-02T06:05:37.132Z,9.27
2023-05-02T06:08:23.717Z,8.00
2023-05-02T06:11:11.590Z,8.10
2023-05-02T06:13:57.975Z,9.10
2023-05-02T06:16:45.047Z,10.70
2023-05-02T06:19:32.012Z,10.27
2023-05-02T06:22:18.429Z,9.13
2023-05-02T06:25:05.310Z,9.70
2023-05-02T06:27:51.804Z,10.90
2023-05-02T06:30:38.245Z,9.10
2023-05-02T06:33:24.845Z,8.43
2023-05-02T06:36:11.039Z,11.60
2023-05-02T06:38:57.634Z,10.17
2023-05-02T06:41:44.318Z,9.33
2023-05-02T06:44:35.616Z,10.47
2023-05-02T06:47:24.296Z,10.27
2023-05-02T06:50:11.566Z,10.87
2023-05-02T06:52:58.109Z,11.67
2023-05-02T06:55:46.310Z,13.00
2023-05-02T06:58:32.842Z,10.70
2023-05-02T07:01:19.154Z,11.57
2023-05-02T07:04:06.194Z,12.63
2023-05-02T07:06:52.663Z,11.37
2023-05-02T07:09:39.259Z,10.50
2023-05-02T07:12:26.315Z,13.93
2023-05-02T07:15:13.881Z,16.13
2023-05-02T07:18:00.920Z,15.73
2023-05-02T07:20:47.659Z,15.50
2023-05-02T07:23:33.976Z,16.10
2023-05-02T07:26:21.110Z,14.23
2023-05-02T07:29:08.808Z,14.97
2023-05-02T07:31:55.077Z,18.10
2023-05-02T07:34:41.722Z,16.97
2023-05-02T07:37:34.658Z,18.37
2023-05-02T07:40:21.366Z,15.40
2023-05-02T07:43:09.813Z,16.07
2023-05-02T07:45:57.517Z,18.43
2023-05-02T07:48:44.900Z,15.47
2023-05-02T07:51:32.412Z,16.40
2023-05-02T07:54:23.163Z,16.40
2023-05-02T07:57:10.003Z,17.30
2023-05-02T08:00:00.007Z,20.90
2023-05-02T08:02:47.117Z,21.43
2023-05-02T08:05:33.622Z,20.90
2023-05-02T08:08:19.870Z,18.37
2023-05-02T08:11:06.924Z,17.97
2023-05-02T08:13:54.200Z,21.40
2023-05-02T08:16:40.891Z,15.87
2023-05-02T08:19:27.821Z,16.30
2023-05-02T08:22:13.887Z,17.90
2023-05-02T08:25:00.151Z,17.23
2023-05-02T08:27:46.843Z,18.47
2023-05-02T08:30:33.597Z,15.90
2023-05-02T08:33:20.164Z,18.30
2023-05-02T08:36:17.325Z,15.73
2023-05-02T08:39:03.881Z,18.47
2023-05-02T08:41:50.371Z,18.63
2023-05-02T08:44:37.414Z,23.03
2023-05-02T08:47:25.968Z,16.90
2023-05-02T08:50:12.818Z,19.20
2023-05-02T08:52:59.848Z,22.13
2023-05-02T08:55:48.680Z,17.43
2023-05-02T08:58:36.329Z,25.07
2023-05-02T09:01:24.229Z,19.50
2023-05-02T09:04:11.308Z,22.00
2023-05-02T09:06:57.943Z,20.43
2023-05-02T09:09:44.328Z,17.60
2023-05-02T09:12:30.690Z,17.97
2023-05-02T09:15:20.473Z,19.00
2023-05-02T09:18:07.289Z,21.93
2023-05-02T09:20:54.792Z,18.50
2023-05-02T09:23:46.132Z,17.03
2023-05-02T09:26:33.314Z,18.03
2023-05-02T09:29:20.741Z,17.40
2023-05-02T09:32:07.373Z,21.60
2023-05-02T09:35:06.767Z,19.47
2023-05-02T09:37:57.875Z,15.07
2023-05-02T09:40:57.566Z,16.40
2023-05-02T09:43:44.015Z,17.83
2023-05-02T09:46:40.599Z,17.50
2023-05-02T09:49:39.264Z,16.30
2023-05-02T09:52:25.792Z,16.77
2023-05-02T09:55:21.400Z,16.60
2023-05-02T09:58:19.850Z,18.30
2023-05-02T10:01:06.463Z,16.10
2023-05-02T10:03:53.766Z,16.10
2023-05-02T10:06:40.972Z,15.53
2023-05-02T10:09:28.253Z,16.80
2023-05-02T10:12:16.567Z,16.50
2023-05-02T10:15:04.513Z,15.67
2023-05-02T10:17:53.381Z,15.50
2023-05-02T10:20:47.831Z,16.23
2023-05-02T10:23:34.721Z,19.70
2023-05-02T10:26:23.336Z,18.37
2023-05-02T10:29:10.808Z,17.53
2023-05-02T10:31:58.660Z,18.07
2023-05-02T10:34:47.540Z,16.83
2023-05-02T10:37:37.593Z,16.77
2023-05-02T10:40:24.239Z,16.63
2023-05-02T10:43:16.134Z,14.23
2023-05-02T10:46:05.341Z,20.30
2023-05-02T10:49:08.590Z,18.47
2023-05-02T10:51:54.896Z,19.00
2023-05-02T10:54:41.264Z,21.47
2023-05-02T10:57:27.861Z,19.47
2023-05-02T11:00:25.515Z,18.97
2023-05-02T11:03:11.904Z,16.80
2023-05-02T11:06:06.717Z,18.03
2023-05-02T11:08:53.628Z,19.43
2023-05-02T11:11:42.009Z,16.77
2023-05-02T11:14:31.147Z,17.33
2023-05-02T11:17:18.450Z,15.33
2023-05-02T11:20:05.430Z,15.30
2023-05-02T11:22:52.067Z,14.57
2023-05-02T11:25:41.639Z,18.40
2023-05-02T11:28:36.927Z,11.60
2023-05-02T11:31:29.614Z,14.57
2023-05-02T11:34:16.250Z,15.93
2023-05-02T11:37:15.121Z,17.30
2023-05-02T11:40:14.569Z,17.40
2023-05-02T11:43:12.806Z,17.47
2023-05-02T11:46:00.395Z,15.03
2023-05-02T11:48:46.945Z,20.20
2023-05-02T11:51:35.552Z,19.93
2023-05-02T11:54:22.812Z,20.60
2023-05-02T11:57:09.492Z,23.03
2023-05-02T11:59:57.623Z,18.47
2023-05-02T12:02:46.053Z,19.13
2023-05-02T12:05:32.733Z,18.70
2023-05-02T12:08:29.915Z,14.63
2023-05-02T12:11:17.191Z,18.27
2023-05-02T12:14:04.628Z,17.00
2023-05-02T12:16:50.859Z,19.10
2023-05-02T12:19:39.046Z,13.30
2023-05-02T12:22:26.336Z,18.67
2023-05-02T12:25:13.303Z,17.00
2023-05-02T12:28:03.639Z,14.37
2023-05-02T12:30:51.187Z,15.87
2023-05-02T12:33:44.246Z,12.43
2023-05-02T12:36:30.747Z,16.67
2023-05-02T12:39:16.924Z,17.47
2023-05-02T12:42:10.833Z,12.37
2023-05-02T12:44:57.334Z,10.70
2023-05-02T12:47:46.611Z,13.50
2023-05-02T12:50:39.413Z,11.10
2023-05-02T12:53:43.677Z,11.97
2023-05-02T12:56:32.800Z,11.93
2023-05-02T12:59:26.624Z,15.63
2023-05-02T13:02:13.203Z,12.43
2023-05-02T13:04:59.789Z,11.80
2023-05-02T13:07:46.782Z,10.27
2023-05-02T13:10:33.223Z,10.83
2023-05-02T13:13:19.663Z,13.83
2023-05-02T13:16:06.835Z,10.60
2023-05-02T13:18:53.457Z,11.90
2023-05-02T13:21:39.961Z,11.27
2023-05-02T13:24:27.776Z,11.10
2023-05-02T13:27:14.256Z,10.37
2023-05-02T13:30:06.656Z,10.87
2023-05-02T13:32:57.391Z,10.80
2023-05-02T13:35:43.605Z,12.97
2023-05-02T13:38:30.624Z,9.93
2023-05-02T13:41:20.160Z,10.53
2023-05-02T13:44:06.635Z,10.77
2023-05-02T13:46:52.868Z,8.73
2023-05-02T13:49:39.562Z,11.17
2023-05-02T13:52:26.032Z,11.90
2023-05-02T13:55:12.663Z,9.53
2023-05-02T13:57:59.401Z,10.30
2023-05-02T14:00:46.010Z,10.37
2023-05-02T14:03:32.487Z,11.60
2023-05-02T14:06:19.167Z,12.53
2023-05-02T14:09:07.185Z,9.90
2023-05-02T14:11:53.668Z,14.40
2023-05-02T14:14:40.653Z,12.43
2023-05-02T14:17:27.296Z,11.73
2023-05-02T14:20:13.842Z,10.67
2023-05-02T14:23:00.140Z,11.13
2023-05-02T14:25:46.488Z,10.87
2023-05-02T14:28:32.791Z,8.47
2023-05-02T14:31:19.419Z,13.43
2023-05-02T14:34:08.721Z,9.47
2023-05-02T14:36:55.956Z,8.97
2023-05-02T14:39:44.634Z,6.37
2023-05-02T14:42:31.157Z,7.47
2023-05-02T14:45:17.509Z,5.97
2023-05-02T14:48:03.969Z,7.83
2023-05-02T14:50:50.598Z,6.43
2023-05-02T14:53:36.785Z,5.40
2023-05-02T14:56:23.319Z,4.80
2023-05-02T14:59:10.085Z,6.30
2023-05-02T15:01:56.958Z,4.40
2023-05-02T15:04:43.534Z,4.90
2023-05-02T15:07:30.094Z,4.00
2023-05-02T15:10:16.362Z,3.73
2023-05-02T15:13:03.888Z,5.13
2023-05-02T15:15:50.563Z,5.30
2023-05-02T15:18:36.805Z,4.30
2023-05-02T15:21:23.249Z,4.90
2023-05-02T15:24:10.522Z,5.47
2023-05-02T15:26:56.867Z,5.23
2023-05-02T15:29:43.231Z,7.33
2023-05-02T15:32:29.882Z,16.87
2023-05-02T15:35:16.075Z,8.30
2023-05-02T15:38:02.402Z,15.90
2023-05-02T15:40:59.750Z,5.37
2023-05-02T15:43:46.279Z,6.80
2023-05-02T15:46:32.891Z,4.23
2023-05-02T15:49:19.496Z,4.07
2023-05-02T15:52:05.825Z,11.97
2023-05-02T15:54:52.093Z,3.27
2023-05-02T15:57:40.562Z,3.07
2023-05-02T16:00:26.880Z,2.13
2023-05-02T16:03:13.885Z,10.00
2023-05-02T16:06:01.030Z,7.13
2023-05-02T16:08:47.369Z,2.60
2023-05-02T16:11:34.307Z,2.57
2023-05-02T16:14:24.023Z,2.43
2023-05-02T16:17:10.749Z,3.33
2023-05-02T16:19:58.183Z,1.67
2023-05-02T16:22:48.458Z,1.53
2023-05-02T16:25:34.874Z,1.93
2023-05-02T16:28:21.160Z,2.30
2023-05-02T16:31:10.935Z,3.20
2023-05-02T16:33:58.767Z,2.53
2023-05-02T16:36:46.704Z,2.73
2023-05-02T16:39:34.067Z,3.27
2023-05-02T16:42:20.695Z,2.30
2023-05-02T16:45:07.638Z,1.80
2023-05-02T16:47:53.884Z,3.77
2023-05-02T16:50:40.576Z,3.20
2023-05-02T16:53:27.581Z,3.17
2023-05-02T16:56:13.964Z,3.93
2023-05-02T16:59:00.669Z,2.63
2023-05-02T17:01:47.160Z,3.30
2023-05-02T17:04:33.771Z,15.33
2023-05-02T17:07:20.385Z,2.10
2023-05-02T17:10:07.466Z,3.47
2023-05-02T17:12:55.954Z,3.37
2023-05-02T17:15:42.740Z,4.23
2023-05-02T17:18:29.116Z,3.30
2023-05-02T17:21:15.471Z,6.07
2023-05-02T17:24:01.965Z,3.50
2023-05-02T17:26:49.097Z,5.10
2023-05-02T17:29:35.539Z,6.97
2023-05-02T17:32:21.834Z,6.53
2023-05-02T17:35:08.646Z,5.50
2023-05-02T17:37:55.382Z,4.33
2023-05-02T17:40:41.542Z,4.07
2023-05-02T17:43:27.818Z,4.37
2023-05-02T17:46:15.356Z,6.93
2023-05-02T17:49:01.884Z,5.60
2023-05-02T17:51:48.136Z,3.00
2023-05-02T17:54:34.406Z,10.37
2023-05-02T17:57:21.384Z,3.83
2023-05-02T18:00:08.556Z,4.27
2023-05-02T18:02:54.776Z,5.30
2023-05-02T18:05:43.942Z,7.20
2023-05-02T18:08:33.485Z,10.10
2023-05-02T18:11:20.930Z,5.67
2023-05-02T18:14:07.298Z,7.27
2023-05-02T18:16:53.541Z,5.33
2023-05-02T18:19:40.115Z,6.40
2023-05-02T18:22:27.332Z,6.20
2023-05-02T18:25:13.638Z,4.33
2023-05-02T18:28:00.329Z,4.67
2023-05-02T18:30:46.656Z,5.73
2023-05-02T18:33:33.039Z,11.57
2023-05-02T18:36:25.092Z,10.03
2023-05-02T18:39:11.651Z,6.13
2023-05-02T18:41:58.522Z,8.43
2023-05-02T18:44:44.735Z,7.13
2023-05-02T18:47:31.575Z,5.83
2023-05-02T18:50:18.286Z,8.33
2023-05-02T18:53:04.518Z,5.73
2023-05-02T18:55:51.274Z,7.57
2023-05-02T18:58:37.605Z,5.97
2023-05-02T19:01:24.570Z,7.83
2023-05-02T19:04:10.866Z,8.87
2023-05-02T19:06:57.162Z,5.70
2023-05-02T19:09:43.881Z,6.80
2023-05-02T19:12:30.928Z,6.93
2023-05-02T19:15:17.595Z,5.90
2023-05-02T19:18:03.977Z,6.37
2023-05-02T19:20:50.629Z,5.67
2023-05-02T19:23:37.581Z,7.53
2023-05-02T19:26:24.216Z,4.33
2023-05-02T19:29:10.718Z,6.43
2023-05-02T19:31:56.962Z,3.30
2023-05-02T19:34:43.509Z,4.70
2023-05-02T19:37:30.145Z,5.03
2023-05-02T19:40:16.769Z,4.83
2023-05-02T19:43:03.358Z,5.13
2023-05-02T19:45:50.166Z,5.23
2023-05-02T19:48:37.124Z,4.23
2023-05-02T19:51:25.725Z,9.00
2023-05-02T19:54:12.690Z,5.80
2023-05-02T19:56:59.352Z,4.30
2023-05-02T19:59:45.406Z,4.63
2023-05-02T20:02:33.658Z,10.83
2023-05-02T20:05:20.275Z,10.83
2023-05-02T20:08:06.394Z,10.50
2023-05-02T20:10:53.832Z,9.73
2023-05-02T20:13:40.456Z,6.50
2023-05-02T20:16:27.354Z,6.83
2023-05-02T20:19:14.035Z,5.00
2023-05-02T20:22:00.331Z,8.97
2023-05-02T20:24:46.534Z,7.27
2023-05-02T20:27:32.827Z,5.07
2023-05-02T20:30:19.861Z,6.37
2023-05-02T20:33:15.377Z,5.47
2023-05-02T20:36:03.052Z,7.83
2023-05-02T20:38:49.173Z,5.20
2023-05-02T20:41:36.419Z,7.23
2023-05-02T20:44:22.806Z,6.63
2023-05-02T20:47:09.231Z,4.23
2023-05-02T20:49:56.734Z,5.67
2023-05-02T20:52:43.301Z,6.37
2023-05-02T20:55:29.852Z,8.03
2023-05-02T20:58:16.416Z,10.30
2023-05-02T21:01:02.802Z,9.17
2023-05-02T21:03:49.364Z,8.57
2023-05-02T21:06:35.960Z,6.40
2023-05-02T21:09:23.287Z,6.40
2023-05-02T21:12:09.841Z,7.17
2023-05-02T21:14:56.107Z,6.70
2023-05-02T21:17:42.557Z,6.87
2023-05-02T21:20:29.050Z,6.67
2023-05-02T21:23:15.693Z,6.07
2023-05-02T21:26:02.023Z,7.43
2023-05-02T21:28:48.158Z,7.73
2023-05-02T21:31:34.441Z,6.73
2023-05-02T21:34:20.944Z,5.53
2023-05-02T21:37:07.367Z,5.70
2023-05-02T21:39:53.678Z,5.40
2023-05-02T21:42:40.020Z,4.27
2023-05-02T21:45:26.729Z,5.30
2023-05-02T21:48:14.158Z,4.60
2023-05-02T21:51:00.513Z,5.60
2023-05-02T21:53:46.752Z,5.77
2023-05-02T21:56:33.258Z,5.63
2023-05-02T21:59:19.386Z,6.87
2023-05-02T22:02:08.782Z,7.40
2023-05-02T22:04:59.656Z,6.60
2023-05-02T22:07:49.082Z,5.40
2023-05-02T22:10:38.592Z,5.00
2023-05-02T22:13:25.366Z,7.77
2023-05-02T22:16:11.919Z,4.93
2023-05-02T22:18:58.358Z,6.97
2023-05-02T22:21:44.949Z,10.83
2023-05-02T22:24:34.710Z,5.73
2023-05-02T22:27:21.068Z,7.97
2023-05-02T22:30:09.482Z,5.37
2023-05-02T22:32:56.134Z,6.27
2023-05-02T22:35:42.612Z,5.90
2023-05-02T22:38:31.105Z,5.87
2023-05-02T22:41:17.377Z,6.50
2023-05-02T22:44:03.822Z,7.17
2023-05-02T22:46:53.478Z,6.97
2023-05-02T22:49:44.578Z,6.97
2023-05-02T22:52:31.438Z,9.20
2023-05-02T22:55:17.827Z,7.93
2023-05-02T22:58:07.339Z,8.37
2023-05-02T23:00:56.374Z,7.50
2023-05-02T23:03:42.657Z,10.17
2023-05-02T23:06:29.228Z,8.27
2023-05-02T23:09:18.718Z,9.23
2023-05-02T23:12:05.643Z,8.00
2023-05-02T23:14:51.872Z,9.30
2023-05-02T23:17:40.083Z,8.30
2023-05-02T23:20:31.028Z,8.27
2023-05-02T23:23:17.489Z,7.47
2023-05-02T23:26:04.049Z,9.67
2023-05-02T23:28:50.663Z,8.63
2023-05-02T23:31:37.132Z,8.33
2023-05-02T23:34:23.979Z,10.10
2023-05-02T23:37:11.469Z,6.13
2023-05-02T23:39:58.516Z,6.90
2023-05-02T23:42:45.830Z,6.07
2023-05-02T23:45:35.136Z,9.03
2023-05-02T23:48:21.646Z,7.33
2023-05-02T23:51:08.034Z,13.57
2023-05-02T23:53:54.902Z,6.93
2023-05-02T23:56:41.523Z,8.40
2023-05-02T23:59:28.031Z,7.07
